• Join FlightAware (Why Join?)
  • Login
  • US Flag 
05:40PM EST


 

Airport Tracker/Info


-or-


 

Live Flight TrackerFlight Track Log ✈ AAY894 ✈ 22-Feb-2014 ✈ KPIE - KIAG

Flight Track Log - Related Links

Times and Time Zones

All times are in EST time to prevent confusion due to time zone crossing. See the AAY894 flight status page for this flight to view local times or setup timezone preferences in your user account.

Time Position Orientation Groundspeed Altitude Reporting Facility
EST Latitude Longitude Course Direction KTS MPH feet Rate Location/Type
08:15AM 27.8833 -82.6833 180° South 163 188 900  Level Tampa TRACON
08:16AM 27.8333 -82.6833 180° South 221 254 2,300 1,620 Climbing Tampa TRACON
08:17AM 27.8000 -82.7500 241° Southwest 264 304 4,200 2,520 Climbing Tampa TRACON
08:18AM 27.8000 -82.8333 270° West 261 300 7,600 2,400 Climbing Tampa TRACON
08:20AM 27.8994 -82.8739 340° North 257 296 11,000 1,680 Climbing Jacksonville Center
08:21AM 27.9956 -82.8267 23° Northeast 304 350 12,300 1,680 Climbing Jacksonville Center
08:22AM 28.1081 -82.8219 North 348 400 14,400 2,220 Climbing Jacksonville Center
08:23AM 28.2208 -82.8431 351° North 387 445 16,800 2,160 Climbing Jacksonville Center
08:24AM 28.3378 -82.8311 North 400 460 18,800 1,680 Climbing Jacksonville Center
08:25AM 28.4586 -82.8194 North 419 482 20,200 1,500 Climbing Jacksonville Center
08:26AM 28.5819 -82.8075 North 429 494 21,900 1,320 Climbing Jacksonville Center
08:27AM 28.6967 -82.7908 North 447 514 22,900 540 Climbing Jacksonville Center
08:28AM 28.8219 -82.7858 North 447 514 23,000 720 Climbing Jacksonville Center
08:29AM 28.9514 -82.7669 North 453 521 24,400 1,500 Climbing Jacksonville Center
08:30AM 29.0806 -82.7572 North 458 527 26,000 1,620 Climbing Jacksonville Center
08:31AM 29.2081 -82.7403 North 458 527 27,700 900 Climbing Jacksonville Center
08:32AM 29.3311 -82.7306 North 458 527 27,900 60 Climbing Jacksonville Center
08:33AM 29.4583 -82.7161 North 458 527 27,900  Level Jacksonville Center
08:34AM 29.5858 -82.7064 North 458 527 28,000 600 Climbing Jacksonville Center
08:35AM 29.7131 -82.6942 North 458 527 29,200 1,200 Climbing Jacksonville Center
08:36AM 29.8383 -82.6819 North 463 533 30,400 1,140 Climbing Jacksonville Center
08:37AM 29.9656 -82.6697 North 458 527 31,500 1,020 Climbing Jacksonville Center
08:38AM 30.1033 -82.6525 North 458 527 32,500 660 Climbing Jacksonville Center
08:39AM 30.2267 -82.6378 North 452 520 32,900 240 Climbing Jacksonville Center
08:40AM 30.3372 -82.6303 North 442 509 33,000  Climbing Jacksonville Center
08:41AM 30.4603 -82.6178 North 442 509 32,900 -60 Descending Jacksonville Center
08:42AM 30.5856 -82.6053 North 447 514 32,900  Level Jacksonville Center
08:43AM 30.7067 -82.5931 North 441 507 32,900  Level Jacksonville Center
08:44AM 30.8319 -82.5806 North 441 507 32,900  Level Jacksonville Center
08:45AM 30.9572 -82.5703 North 441 507 33,000  Climbing Jacksonville Center
08:46AM 31.0803 -82.5506 North 441 507 32,900  Descending Jacksonville Center
08:47AM 31.2036 -82.5403 North 441 507 33,000  Climbing Jacksonville Center
08:48AM 31.3308 -82.5131 10° North 446 513 32,900  Descending Jacksonville Center
08:49AM 31.4644 -82.4981 North 446 513 33,000  Climbing Jacksonville Center
08:50AM 31.5897 -82.4756 North 446 513 33,000  Level Jacksonville Center
08:51AM 31.7928 -82.4506 North 436 502 33,000  Level Atlanta Center
08:52AM 31.9178 -82.4289 North 436 502 33,000  Level Atlanta Center
08:53AM 32.0386 -82.4119 North 442 509 33,000  Level Atlanta Center
08:54AM 32.1633 -82.3925 North 442 509 33,000  Level Atlanta Center
08:55AM 32.2842 -82.3731 North 442 509 33,000  Level Atlanta Center
08:56AM 32.4050 -82.3561 North 442 509 33,000  Level Atlanta Center
08:57AM 32.5428 -82.3411 North 442 509 33,000  Level Atlanta Center
08:58AM 32.6675 -82.3189 North 442 509 33,000  Level Atlanta Center
08:59AM 32.7883 -82.3042 North 442 509 33,000  Level Atlanta Center
09:00AM 32.9156 -82.2819 North 448 516 33,000  Level Atlanta Center
09:01AM 33.0383 -82.2647 North 448 516 33,000  Level Atlanta Center
09:02AM 33.1633 -82.2422 North 443 510 33,000  Level Atlanta Center
09:03AM 33.2861 -82.2272 North 443 510 33,000  Level Atlanta Center
09:04AM 33.4089 -82.2047 North 443 510 33,000  Level Atlanta Center
09:05AM 33.5300 -82.1922 North 443 510 33,000  Level Atlanta Center
09:06AM 33.6547 -82.1669 10° North 448 516 33,000  Level Atlanta Center
09:07AM 33.7797 -82.1494 North 448 516 33,000  Level Atlanta Center
09:08AM 33.8942 -82.1294 North 448 516 33,000  Level Atlanta Center
09:09AM 34.0211 -82.1064 North 453 521 33,000  Level Atlanta Center
09:10AM 34.1439 -82.0861 North 453 521 33,000  Level Atlanta Center
09:11AM 34.2689 -82.0631 North 453 521 33,000  Level Atlanta Center
09:12AM 34.3936 -82.0425 North 448 516 33,000  Level Atlanta Center
09:13AM 34.5164 -82.0194 North 448 516 33,000  Level Atlanta Center
09:14AM 34.6456 -81.9986 North 448 516 33,000  Level Atlanta Center
09:15AM 34.7661 -81.9731 10° North 443 510 33,000  Level Atlanta Center
09:16AM 34.8931 -81.9547 North 443 510 33,000  Level Atlanta Center
09:17AM 35.0200 -81.9286 10° North 449 517 33,000  Level Atlanta Center
09:18AM 35.1447 -81.9000 11° North 454 522 33,000  Level Atlanta Center
09:19AM 35.2714 -81.8636 13° North 459 528 33,000  Level Atlanta Center
09:20AM 35.3981 -81.8297 12° North 454 522 33,000  Level Atlanta Center
09:21AM 35.5267 -81.7906 14° North 466 536 33,000  Level Atlanta Center
09:22AM 35.6553 -81.7589 11° North 466 536 33,000  Level Atlanta Center
09:23AM 35.7839 -81.7169 15° North 471 542 33,000  Level Atlanta Center
09:24AM 35.9106 -81.6850 12° North 466 536 33,000  Level Atlanta Center
09:25AM 36.0411 -81.6378 16° North 466 536 33,000  Level Atlanta Center
09:26AM 36.1656 -81.6083 11° North 466 536 33,000  Level Atlanta Center
09:27AM 36.2919 -81.5633 16° North 466 536 33,000  Level Atlanta Center
09:28AM 36.4186 -81.5311 12° North 471 542 33,000  Level Atlanta Center
09:29AM 36.5469 -81.4933 13° North 466 536 33,000  Level Atlanta Center
09:31AM 36.7731 -81.4294 13° North 475 547 33,000  Level Indianapolis Center
09:32AM 36.8981 -81.3844 16° North 475 547 33,000  Level Indianapolis Center
09:33AM 37.0314 -81.3511 11° North 467 537 33,000  Level Indianapolis Center
09:34AM 37.1575 -81.3081 15° North 465 535 33,000  Level Indianapolis Center
09:35AM 37.2925 -81.2725 12° North 467 537 33,000  Level Indianapolis Center
09:36AM 37.4172 -81.2311 15° North 470 541 33,000  Level Indianapolis Center
09:37AM 37.5436 -81.1964 12° North 471 542 33,000  Level Indianapolis Center
09:38AM 37.6706 -81.1572 14° North 474 545 33,000  Level Indianapolis Center
09:39AM 37.8214 -81.1103 14° North 475 547 33,000  Level Indianapolis Center
09:40AM 37.9511 -81.0756 12° North 468 539 33,000  Level Indianapolis Center
09:41AM 38.0792 -81.0339 14° North 470 541 33,000  Level Indianapolis Center
09:42AM 38.2033 -81.0019 11° North 464 534 33,000  Level Indianapolis Center
09:43AM 38.3289 -80.9628 14° North 463 533 33,000  Level Indianapolis Center
09:44AM 38.4536 -80.9308 11° North 464 534 33,000  Level Indianapolis Center
09:45AM 38.5800 -80.8883 15° North 465 535 33,000  Level Indianapolis Center
09:46AM 38.7069 -80.8575 11° North 467 537 33,000  Level Indianapolis Center
09:47AM 38.8611 -80.8039 15° North 478 550 33,000  Level Indianapolis Center
09:48AM 38.9894 -80.7736 10° North 478 550 33,000  Level Indianapolis Center
09:50AM 39.1158 -80.7300 15° North 473 544 33,000  Level Indianapolis Center
09:51AM 39.2450 -80.6944 12° North 474 545 33,000  Level Indianapolis Center
09:52AM 39.3761 -80.6528 14° North 480 552 33,000  Level Indianapolis Center
09:53AM 39.5075 -80.6172 12° North 485 558 33,000  Level Indianapolis Center
09:54AM 39.6356 -80.5817 12° North 474 545 33,000  Level Indianapolis Center
09:54AM 39.7289 -80.5392 19° North 482 555 33,000  Level Cleveland Center
09:55AM 39.8583 -80.4828 18° North 488 562 33,000  Level Cleveland Center
09:56AM 39.9850 -80.4289 18° North 482 555 33,000  Level Cleveland Center
09:57AM 40.1139 -80.3675 20° North 488 562 33,000  Level Cleveland Center
09:58AM 40.2411 -80.3142 18° North 482 555 33,000 -300 Level Cleveland Center
09:59AM 40.3769 -80.2486 20° North 482 555 32,500 -540 Descending Cleveland Center
10:00AM 40.5050 -80.1944 18° North 483 556 32,000 -540 Descending Cleveland Center
10:01AM 40.6289 -80.1306 21° North 483 556 31,500 -540 Descending Cleveland Center
10:02AM 40.7569 -80.0758 18° North 483 556 31,000 -300 Descending Cleveland Center
10:03AM 40.8886 -80.0094 21° North 495 570 31,000  Level Cleveland Center
10:04AM 41.0178 -79.9606 16° North 486 559 31,000 -600 Level Cleveland Center
10:05AM 41.1672 -79.8794 22° Northeast 489 563 29,900 -1,020 Descending Cleveland Center
10:07AM 41.3006 -79.8272 16° North 491 565 29,000 -960 Descending Cleveland Center
10:08AM 41.4292 -79.7575 22° Northeast 494 568 28,000 -1,020 Descending Cleveland Center
10:09AM 41.5581 -79.6997 19° North 493 567 27,000 -1,320 Descending Cleveland Center
10:10AM 41.6967 -79.6317 20° North 490 564 25,400 -1,560 Descending Cleveland Center
10:11AM 41.8053 -79.5886 16° North 462 532 23,900 -1,620 Descending Cleveland Center
10:12AM 41.9178 -79.5264 22° Northeast 440 506 22,100 -1,860 Descending Cleveland Center
10:13AM 42.0478 -79.4678 19° North 404 465 20,100 -1,980 Descending Cleveland Center
10:14AM 42.1500 -79.4242 18° North 390 449 18,100 -1,800 Descending Cleveland Center
10:15AM 42.2453 -79.3675 24° Northeast 376 433 16,500 -1,680 Descending Cleveland Center
10:16AM 42.3378 -79.3292 17° North 351 404 14,700 -1,740 Descending Cleveland Center
10:17AM 42.4269 -79.2789 23° Northeast 347 399 13,000 -1,680 Descending Cleveland Center
10:18AM 42.5061 -79.2200 29° Northeast 344 396 11,300 -1,620 Descending Cleveland Center
10:19AM 42.5897 -79.1394 35° Northeast 334 384 9,700 -1,560 Descending Cleveland Center
10:20AM 42.6667 -79.0706 33° Northeast 323 372 8,200 -1,380 Descending Cleveland Center
10:21AM 42.7419 -79.0008 34° Northeast 314 361 6,900 -1,080 Descending Cleveland Center
10:22AM 42.8194 -78.9417 29° Northeast 307 353 6,000 -840 Descending Cleveland Center
10:23AM 42.8886 -78.8908 28° Northeast 298 343 5,200 -900 Descending Cleveland Center
10:24AM 42.9533 -78.8450 27° Northeast 262 302 4,200 -1,080 Descending Cleveland Center
10:25AM 43.0086 -78.8164 21° North 214 246 3,000 -1,080 Descending Cleveland Center
10:26AM 43.0625 -78.8067 North 194 223 2,000 -540 Descending Cleveland Center
10:27AM 43.0997 -78.8192 346° North 155 178 2,000 -240 Level Cleveland Center
10:28AM 43.1136 -78.8633 293° West 124 143 1,600 -420 Descending Cleveland Center